Time;durP1;ratioP1;P1;durP2;ratioP2;P2;SDS_P1;SDS_P2;PMS_P1;PMS_P2;Temp;Humidity;BMP_temperature;BMP_pressure;BME280_temperature;BME280_humidity;BME280_pressure;Samples;Min_cycle;Max_cycle;Signal;HPM_P1;HPM_P2
2021/05/08 00:00:33;;;;;;;5.30;4.00;;;6.60;99.90;;;;;;5052087;28;20183;-76
2021/05/08 00:02:58;;;;;;;4.20;3.70;;;6.60;99.90;;;;;;5052355;28;20202;-76
2021/05/08 00:05:24;;;;;;;6.83;3.80;;;6.50;99.90;;;;;;5033751;28;20429;-77
2021/05/08 00:07:49;;;;;;;3.63;3.33;;;6.50;99.90;;;;;;5076554;28;20204;-76
2021/05/08 00:10:17;;;;;;;4.20;3.80;;;6.40;99.90;;;;;;5056600;28;20182;-76
2021/05/08 00:12:43;;;;;;;4.30;3.70;;;6.30;99.90;;;;;;5060637;28;20208;-76
2021/05/08 00:15:11;;;;;;;4.97;3.60;;;6.30;99.90;;;;;;5054573;28;20439;-76
2021/05/08 00:17:37;;;;;;;4.03;3.63;;;6.30;99.90;;;;;;5064561;28;20827;-76
2021/05/08 00:20:06;;;;;;;4.53;3.67;;;6.30;99.90;;;;;;5052724;28;20434;-76
2021/05/08 00:22:31;;;;;;;5.70;4.43;;;6.30;99.90;;;;;;5069123;28;20468;-76
2021/05/08 00:24:57;;;;;;;6.43;4.97;;;6.20;99.90;;;;;;5068703;28;20910;-76
2021/05/08 00:27:22;;;;;;;5.67;4.97;;;6.20;99.90;;;;;;5071313;28;20559;-76
2021/05/08 00:29:48;;;;;;;6.90;5.60;;;6.20;99.90;;;;;;5073215;28;20182;-76
2021/05/08 00:32:13;;;;;;;7.63;5.97;;;6.30;99.90;;;;;;5058295;28;20674;-76
2021/05/08 00:34:39;;;;;;;9.90;6.53;;;6.40;99.90;;;;;;5055534;28;20194;-76
2021/05/08 00:37:05;;;;;;;7.87;6.40;;;6.30;99.90;;;;;;5061222;28;20208;-76
2021/05/08 00:39:30;;;;;;;9.17;6.73;;;6.40;99.90;;;;;;5073909;28;20185;-76
2021/05/08 00:41:56;;;;;;;8.50;6.93;;;6.40;99.90;;;;;;5066754;28;20182;-76
2021/05/08 00:44:21;;;;;;;8.13;6.67;;;6.30;99.90;;;;;;5066477;28;20202;-76
2021/05/08 00:46:47;;;;;;;9.00;6.03;;;6.20;99.90;;;;;;5063154;28;20214;-76
2021/05/08 00:49:13;;;;;;;9.50;7.00;;;6.20;99.90;;;;;;5055290;28;20574;-76
2021/05/08 00:51:39;;;;;;;8.20;6.80;;;5.90;99.90;;;;;;5059298;28;20468;-76
2021/05/08 00:54:04;;;;;;;12.33;7.90;;;5.80;99.90;;;;;;5067972;28;20479;-76
2021/05/08 00:56:30;;;;;;;12.17;8.17;;;5.80;99.90;;;;;;5056064;28;20639;-76
2021/05/08 00:58:56;;;;;;;9.53;8.47;;;5.80;99.90;;;;;;5075122;28;20505;-76
2021/05/08 01:01:22;;;;;;;10.03;8.17;;;5.70;99.90;;;;;;5051106;28;20192;-76
2021/05/08 01:03:49;;;;;;;11.07;9.27;;;5.70;99.90;;;;;;5072314;28;20795;-76
2021/05/08 01:06:15;;;;;;;14.40;7.73;;;5.60;99.90;;;;;;5052642;28;20201;-76
2021/05/08 01:08:41;;;;;;;8.50;7.30;;;5.60;99.90;;;;;;5073726;28;20436;-76
2021/05/08 01:11:07;;;;;;;8.80;7.90;;;5.70;99.90;;;;;;5066441;28;20183;-76
2021/05/08 01:13:33;;;;;;;8.80;7.87;;;5.80;99.90;;;;;;5057585;28;20428;-76
2021/05/08 01:15:59;;;;;;;9.43;7.40;;;5.80;99.90;;;;;;5074915;28;20927;-76
2021/05/08 01:18:25;;;;;;;10.93;7.93;;;5.80;99.90;;;;;;5073262;28;20173;-76
2021/05/08 01:20:51;;;;;;;9.90;8.17;;;5.70;99.90;;;;;;5066092;28;20455;-76
2021/05/08 01:23:17;;;;;;;9.03;7.40;;;5.90;99.90;;;;;;5072709;28;20647;-76
2021/05/08 01:25:42;;;;;;;10.33;7.90;;;6.00;99.90;;;;;;5054732;28;20456;-76
2021/05/08 01:28:08;;;;;;;14.00;8.17;;;6.10;99.90;;;;;;5068252;28;20560;-76
2021/05/08 01:30:36;;;;;;;14.43;8.60;;;6.10;99.90;;;;;;5069461;28;20177;-76
2021/05/08 01:33:06;;;;;;;8.57;7.70;;;6.10;99.90;;;;;;5074274;28;20228;-75
2021/05/08 01:35:33;;;;;;;9.07;7.73;;;6.20;99.90;;;;;;5070128;28;20455;-75
2021/05/08 01:37:59;;;;;;;8.73;7.83;;;6.30;99.90;;;;;;5061232;28;20433;-75
2021/05/08 01:40:33;;;;;;;8.87;6.60;;;6.50;99.90;;;;;;5053564;28;20494;-76
2021/05/08 01:42:58;;;;;;;8.13;7.30;;;6.50;99.90;;;;;;5052458;28;20804;-77
2021/05/08 01:45:25;;;;;;;8.97;8.07;;;6.50;99.90;;;;;;5067292;28;20479;-75
2021/05/08 01:47:52;;;;;;;7.67;6.97;;;6.60;99.90;;;;;;5046709;28;20229;-76
2021/05/08 01:50:20;;;;;;;7.10;6.40;;;6.50;99.90;;;;;;5054991;28;20428;-76
2021/05/08 01:52:46;;;;;;;9.63;6.90;;;6.50;99.90;;;;;;5059865;28;20436;-76
2021/05/08 01:55:17;;;;;;;9.67;7.80;;;6.50;99.90;;;;;;5056966;28;20444;-76
2021/05/08 01:57:51;;;;;;;7.70;6.63;;;6.30;99.90;;;;;;5072855;28;20171;-75
2021/05/08 02:00:24;;;;;;;7.53;6.37;;;6.20;99.90;;;;;;5052260;28;20422;-76
2021/05/08 02:02:52;;;;;;;9.47;6.93;;;6.00;99.90;;;;;;5035791;28;20779;-76
2021/05/08 02:05:18;;;;;;;10.27;8.00;;;6.00;99.90;;;;;;5054232;28;20449;-75
2021/05/08 02:07:44;;;;;;;11.17;7.83;;;5.60;99.90;;;;;;5072458;28;20464;-76
2021/05/08 02:10:12;;;;;;;7.73;6.90;;;5.60;99.90;;;;;;5053641;28;20436;-76
2021/05/08 02:12:38;;;;;;;11.07;9.00;;;5.50;99.90;;;;;;5055231;28;20182;-76
2021/05/08 02:15:15;;;;;;;8.83;7.90;;;5.60;99.90;;;;;;5064485;28;20462;-76
2021/05/08 02:17:41;;;;;;;9.33;8.27;;;5.60;99.90;;;;;;5073206;28;20177;-75
2021/05/08 02:20:16;;;;;;;8.93;7.80;;;5.40;99.90;;;;;;5067011;28;20450;-75
2021/05/08 02:22:43;;;;;;;10.40;8.10;;;5.20;99.90;;;;;;5065648;28;20466;-75
2021/05/08 02:25:10;;;;;;;12.27;9.30;;;4.90;99.90;;;;;;5072588;28;20886;-75
2021/05/08 02:27:38;;;;;;;12.33;8.93;;;4.80;99.90;;;;;;5071655;28;20448;-75
2021/05/08 02:30:05;;;;;;;16.23;10.03;;;4.80;99.90;;;;;;5053415;28;20433;-75
2021/05/08 02:32:31;;;;;;;11.57;8.97;;;4.80;99.90;;;;;;5053059;28;20429;-75
2021/05/08 02:34:57;;;;;;;16.70;10.00;;;4.70;99.90;;;;;;5044447;28;20998;-75
2021/05/08 02:37:23;;;;;;;12.47;8.10;;;4.80;99.90;;;;;;5035141;28;20185;-76
2021/05/08 02:39:48;;;;;;;15.40;9.93;;;4.80;99.90;;;;;;5052730;28;20193;-75
2021/05/08 02:42:14;;;;;;;12.50;8.47;;;4.90;99.90;;;;;;5053130;28;20625;-75
2021/05/08 02:44:40;;;;;;;12.10;8.73;;;4.80;99.90;;;;;;5067942;28;20194;-75
2021/05/08 02:47:16;;;;;;;12.20;10.23;;;4.60;99.90;;;;;;5072242;28;20555;-75
2021/05/08 02:49:50;;;;;;;10.37;8.73;;;4.50;99.90;;;;;;5063085;28;20174;-75
2021/05/08 02:52:16;;;;;;;11.90;9.60;;;4.50;99.90;;;;;;5087195;28;20415;-75
2021/05/08 02:54:42;;;;;;;11.37;9.20;;;4.20;99.90;;;;;;5060007;28;20597;-75
2021/05/08 02:57:08;;;;;;;17.53;10.50;;;4.10;99.90;;;;;;5070287;28;20526;-75
2021/05/08 02:59:34;;;;;;;13.87;10.47;;;3.90;99.90;;;;;;5054192;28;20412;-76
2021/05/08 03:02:00;;;;;;;13.87;9.47;;;3.80;99.90;;;;;;5071425;28;20646;-75
2021/05/08 03:04:26;;;;;;;13.00;10.37;;;3.70;99.90;;;;;;5060463;28;20954;-75
2021/05/08 03:06:52;;;;;;;14.03;9.27;;;3.70;99.90;;;;;;5068939;28;20465;-75
2021/05/08 03:09:17;;;;;;;14.23;9.40;;;3.70;99.90;;;;;;5052008;28;20785;-75
2021/05/08 03:11:43;;;;;;;11.93;9.70;;;3.60;99.90;;;;;;5047438;28;20181;-75
2021/05/08 03:14:08;;;;;;;17.50;8.73;;;3.70;99.90;;;;;;5051756;28;20255;-75
2021/05/08 03:16:38;;;;;;;12.57;8.47;;;3.70;99.90;;;;;;5034747;28;20579;-75
2021/05/08 03:19:04;;;;;;;14.47;9.67;;;3.70;99.90;;;;;;5068401;28;20186;-75
2021/05/08 03:21:29;;;;;;;9.50;8.03;;;3.80;99.90;;;;;;5064440;28;20920;-75
2021/05/08 03:23:55;;;;;;;9.63;7.80;;;3.80;99.90;;;;;;5034067;28;20263;-75
2021/05/08 03:26:20;;;;;;;14.17;9.10;;;3.70;99.90;;;;;;5039867;28;20178;-76
2021/05/08 03:28:46;;;;;;;12.30;9.13;;;3.80;99.90;;;;;;5052250;28;20571;-76
2021/05/08 03:31:11;;;;;;;13.03;9.10;;;3.80;99.90;;;;;;5060873;28;20181;-76
2021/05/08 03:33:37;;;;;;;11.87;9.53;;;3.70;99.90;;;;;;5052006;28;20185;-76
2021/05/08 03:36:02;;;;;;;14.43;10.90;;;3.70;99.90;;;;;;5059778;28;20201;-75
2021/05/08 03:38:28;;;;;;;21.33;9.30;;;3.70;99.90;;;;;;5054389;28;20196;-76
2021/05/08 03:40:53;;;;;;;11.93;8.80;;;3.70;99.90;;;;;;5059914;28;20219;-75
2021/05/08 03:43:19;;;;;;;12.13;9.23;;;3.70;99.90;;;;;;5040599;28;20189;-75
2021/05/08 03:45:44;;;;;;;16.60;10.00;;;3.60;99.90;;;;;;5070254;28;20220;-75
2021/05/08 03:48:10;;;;;;;15.80;9.20;;;3.60;99.90;;;;;;5068483;28;20291;-76
2021/05/08 03:50:35;;;;;;;15.20;9.10;;;3.60;99.90;;;;;;5033726;28;20163;-76
2021/05/08 03:53:01;;;;;;;10.37;8.40;;;3.50;99.90;;;;;;5053405;28;20224;-75
2021/05/08 03:55:27;;;;;;;11.90;8.67;;;3.50;99.90;;;;;;5065375;28;20707;-75
2021/05/08 03:57:52;;;;;;;12.77;9.73;;;3.40;99.90;;;;;;5070646;28;20170;-75
2021/05/08 04:00:18;;;;;;;13.47;9.60;;;3.50;99.90;;;;;;5061978;28;20190;-75
2021/05/08 04:02:44;;;;;;;12.30;9.93;;;3.50;99.90;;;;;;5069338;28;20177;-75
2021/05/08 04:05:10;;;;;;;11.20;9.33;;;3.50;99.90;;;;;;5073311;28;20453;-75
2021/05/08 04:07:35;;;;;;;10.30;9.00;;;3.50;99.90;;;;;;5042298;28;20551;-76
2021/05/08 04:10:02;;;;;;;13.93;9.83;;;3.40;99.90;;;;;;5066421;28;20427;-75
2021/05/08 04:12:28;;;;;;;12.00;9.60;;;3.40;99.90;;;;;;5074460;28;20170;-75
2021/05/08 04:14:53;;;;;;;13.07;9.70;;;3.40;99.90;;;;;;5056683;28;20958;-75
2021/05/08 04:17:19;;;;;;;19.33;11.27;;;3.50;99.90;;;;;;5055790;28;20234;-75
2021/05/08 04:19:44;;;;;;;11.73;9.53;;;3.50;99.90;;;;;;5055122;28;20179;-75
2021/05/08 04:22:10;;;;;;;11.90;9.70;;;3.60;99.90;;;;;;5038291;28;20555;-76
2021/05/08 04:24:36;;;;;;;10.53;8.80;;;3.70;99.90;;;;;;5058476;28;20189;-76
2021/05/08 04:27:02;;;;;;;12.60;9.47;;;3.70;99.90;;;;;;5071468;28;20448;-76
2021/05/08 04:29:27;;;;;;;11.40;9.13;;;3.80;99.90;;;;;;5068590;28;20174;-75
2021/05/08 04:31:53;;;;;;;10.70;9.07;;;3.90;99.90;;;;;;5074349;28;20184;-75
2021/05/08 04:34:19;;;;;;;10.80;9.70;;;4.00;99.90;;;;;;5073665;28;20220;-75
2021/05/08 04:36:45;;;;;;;9.73;8.30;;;4.00;99.90;;;;;;5072823;28;20174;-75
2021/05/08 04:39:10;;;;;;;11.67;8.00;;;4.00;99.90;;;;;;5065845;28;20805;-75
2021/05/08 04:41:36;;;;;;;13.93;9.60;;;4.00;99.90;;;;;;5058951;28;20587;-75
2021/05/08 04:44:01;;;;;;;12.13;10.00;;;4.00;99.90;;;;;;5071848;28;20564;-76
2021/05/08 04:46:27;;;;;;;11.53;8.60;;;4.00;99.90;;;;;;5074126;28;20792;-76
2021/05/08 04:48:54;;;;;;;13.30;8.57;;;4.10;99.90;;;;;;5070259;28;20166;-75
2021/05/08 04:51:20;;;;;;;9.83;8.50;;;4.10;99.90;;;;;;5054826;28;20178;-76
2021/05/08 04:53:46;;;;;;;9.90;8.60;;;4.20;99.90;;;;;;5059096;28;20474;-76
2021/05/08 04:56:11;;;;;;;8.40;7.00;;;4.30;99.90;;;;;;5052705;28;20528;-76
2021/05/08 04:58:37;;;;;;;10.23;9.00;;;4.40;99.90;;;;;;5063093;28;20179;-76
2021/05/08 05:01:02;;;;;;;13.23;9.33;;;4.50;99.90;;;;;;5070983;28;20181;-76
2021/05/08 05:03:28;;;;;;;11.10;8.57;;;4.70;99.90;;;;;;5072241;28;20170;-76
2021/05/08 05:05:53;;;;;;;11.37;10.03;;;4.80;99.90;;;;;;5073958;28;20186;-76
2021/05/08 05:08:20;;;;;;;13.60;8.47;;;5.10;99.90;;;;;;5069407;28;20571;-76
2021/05/08 05:10:49;;;;;;;11.93;8.93;;;5.30;99.90;;;;;;5053889;28;20167;-75
2021/05/08 05:13:15;;;;;;;14.53;12.20;;;5.50;99.90;;;;;;5058854;28;20424;-75
2021/05/08 05:15:40;;;;;;;13.87;12.07;;;5.70;99.90;;;;;;5047131;28;20452;-75
2021/05/08 05:18:06;;;;;;;13.43;10.60;;;5.90;99.90;;;;;;5054632;28;20171;-75
2021/05/08 05:20:31;;;;;;;10.90;9.80;;;5.90;99.90;;;;;;5041643;28;20170;-75
2021/05/08 05:22:57;;;;;;;11.20;9.80;;;6.10;99.90;;;;;;5054573;28;20652;-75
2021/05/08 05:25:22;;;;;;;8.77;7.90;;;6.30;99.90;;;;;;5064596;28;20238;-75
2021/05/08 05:27:48;;;;;;;11.10;8.70;;;6.50;99.90;;;;;;5054394;28;20277;-75
2021/05/08 05:30:14;;;;;;;9.73;8.07;;;6.60;99.90;;;;;;5065207;28;20206;-76
2021/05/08 05:32:39;;;;;;;9.00;8.00;;;6.90;99.90;;;;;;5054362;28;20166;-76
2021/05/08 05:35:06;;;;;;;8.40;7.37;;;7.10;99.90;;;;;;5059888;28;20461;-76
2021/05/08 05:37:31;;;;;;;8.23;7.40;;;7.40;99.90;;;;;;5063791;28;20239;-76
2021/05/08 05:39:57;;;;;;;10.90;8.03;;;7.40;99.90;;;;;;5072544;28;20432;-75
2021/05/08 05:42:22;;;;;;;8.03;7.00;;;7.40;99.90;;;;;;5053224;28;20179;-76
2021/05/08 05:44:48;;;;;;;10.53;7.93;;;7.60;99.90;;;;;;5046518;28;20198;-76
2021/05/08 05:47:22;;;;;;;8.53;7.47;;;7.90;99.90;;;;;;5035635;28;20534;-76
2021/05/08 05:49:53;;;;;;;10.27;7.07;;;8.50;99.90;;;;;;5040779;28;20630;-76
2021/05/08 05:52:19;;;;;;;8.53;7.67;;;8.60;99.90;;;;;;5074063;28;20404;-75
2021/05/08 05:54:46;;;;;;;7.43;6.63;;;8.60;99.90;;;;;;5069368;28;20441;-76
2021/05/08 05:57:12;;;;;;;7.90;7.20;;;8.70;99.90;;;;;;5056647;28;20437;-76
2021/05/08 05:59:38;;;;;;;7.37;6.70;;;8.80;99.90;;;;;;5072651;28;20441;-78
2021/05/08 06:02:05;;;;;;;8.93;7.17;;;9.10;99.90;;;;;;5070288;28;20439;-77
2021/05/08 06:04:31;;;;;;;7.73;7.03;;;9.50;99.90;;;;;;5070581;28;20213;-77
2021/05/08 06:06:57;;;;;;;9.40;7.60;;;9.40;99.90;;;;;;5036543;28;20493;-76
2021/05/08 06:09:25;;;;;;;7.57;6.87;;;9.60;99.90;;;;;;5036530;28;21038;-76
2021/05/08 06:11:51;;;;;;;7.17;6.47;;;9.90;99.90;;;;;;5045764;28;20640;-77
2021/05/08 06:14:17;;;;;;;10.50;7.50;;;10.20;99.90;;;;;;5071294;28;20455;-76
2021/05/08 06:16:42;;;;;;;7.60;6.80;;;10.20;99.90;;;;;;5071545;28;20793;-77
2021/05/08 06:19:08;;;;;;;7.20;6.60;;;10.30;99.90;;;;;;5072636;28;20186;-76
2021/05/08 06:21:33;;;;;;;7.70;6.40;;;10.40;99.90;;;;;;5072911;28;20220;-76
2021/05/08 06:23:59;;;;;;;8.30;6.80;;;10.10;99.90;;;;;;5066291;28;20208;-77
2021/05/08 06:26:24;;;;;;;6.87;6.07;;;10.40;99.90;;;;;;5059071;28;20167;-77
2021/05/08 06:28:50;;;;;;;7.63;6.83;;;10.40;99.90;;;;;;5071942;28;20547;-77
2021/05/08 06:31:15;;;;;;;7.23;6.53;;;10.70;99.90;;;;;;5059206;28;20171;-77
2021/05/08 06:33:41;;;;;;;7.30;6.70;;;10.60;99.90;;;;;;5053155;28;20169;-77
2021/05/08 06:36:07;;;;;;;8.03;7.27;;;10.50;99.90;;;;;;5060326;28;20232;-77
2021/05/08 06:38:32;;;;;;;7.07;6.40;;;10.70;99.90;;;;;;5035384;28;20194;-76
2021/05/08 06:40:58;;;;;;;9.47;7.23;;;10.70;99.90;;;;;;5036019;28;20178;-77
2021/05/08 06:43:23;;;;;;;7.00;6.17;;;10.80;99.90;;;;;;5071174;28;20185;-77
2021/05/08 06:45:49;;;;;;;9.50;7.80;;;10.70;99.90;;;;;;5070901;28;20574;-77
2021/05/08 06:48:15;;;;;;;8.90;6.30;;;11.00;99.90;;;;;;5042955;28;20198;-77
2021/05/08 06:50:47;;;;;;;9.67;6.97;;;11.10;99.90;;;;;;5065226;28;20174;-78
2021/05/08 06:53:13;;;;;;;7.33;6.63;;;11.10;99.90;;;;;;5054313;28;20427;-75
2021/05/08 06:55:39;;;;;;;7.67;6.97;;;11.20;99.90;;;;;;5054599;28;20440;-76
2021/05/08 06:58:05;;;;;;;8.00;7.30;;;11.20;99.90;;;;;;5071871;28;20303;-77
2021/05/08 07:00:30;;;;;;;8.37;7.57;;;11.40;99.90;;;;;;5060445;28;20182;-77
2021/05/08 07:02:56;;;;;;;8.20;6.30;;;11.70;99.90;;;;;;5063594;28;21515;-77
2021/05/08 07:05:22;;;;;;;7.67;6.33;;;11.60;99.90;;;;;;5071763;28;20325;-77
2021/05/08 07:07:57;;;;;;;8.70;7.50;;;11.70;99.90;;;;;;5070869;28;20283;-77
2021/05/08 07:10:23;;;;;;;7.20;6.50;;;11.50;99.90;;;;;;5071875;28;20427;-77
2021/05/08 07:12:48;;;;;;;8.17;7.23;;;11.60;99.90;;;;;;5052806;28;20438;-77
2021/05/08 07:15:14;;;;;;;7.47;6.77;;;11.50;99.90;;;;;;5069900;28;20205;-77
2021/05/08 07:17:39;;;;;;;7.13;6.40;;;11.60;99.90;;;;;;5071698;28;20588;-78
2021/05/08 07:20:06;;;;;;;7.40;6.70;;;11.20;99.90;;;;;;5054860;28;20174;-77
2021/05/08 07:22:31;;;;;;;9.20;6.73;;;11.00;99.90;;;;;;5072704;28;20515;-78
2021/05/08 07:24:57;;;;;;;8.40;7.10;;;11.00;99.90;;;;;;5056445;28;20468;-77
2021/05/08 07:27:22;;;;;;;10.53;7.00;;;11.00;99.90;;;;;;5072461;28;20627;-77
2021/05/08 07:29:48;;;;;;;7.50;5.73;;;10.80;99.90;;;;;;5036658;28;20174;-77
2021/05/08 07:32:13;;;;;;;7.80;6.23;;;10.70;99.90;;;;;;5043359;28;20211;-78
2021/05/08 07:34:39;;;;;;;6.80;5.77;;;10.80;99.90;;;;;;5072617;28;20228;-77
2021/05/08 07:37:04;;;;;;;7.13;6.43;;;10.80;99.90;;;;;;5044593;28;20192;-77
2021/05/08 07:39:30;;;;;;;9.93;6.50;;;10.90;99.90;;;;;;5072510;28;20178;-77
2021/05/08 07:41:55;;;;;;;6.80;6.07;;;10.90;99.90;;;;;;5072296;28;20170;-77
2021/05/08 07:44:21;;;;;;;6.97;6.27;;;11.10;99.90;;;;;;5052854;28;20199;-77
2021/05/08 07:46:46;;;;;;;6.73;6.03;;;11.10;99.90;;;;;;5068544;28;20566;-78
2021/05/08 07:49:12;;;;;;;7.13;5.93;;;11.30;99.90;;;;;;5054403;28;20191;-78
2021/05/08 07:51:38;;;;;;;6.07;5.57;;;11.30;99.90;;;;;;5052751;28;20437;-78
2021/05/08 07:54:05;;;;;;;7.53;5.80;;;11.40;99.90;;;;;;5036282;28;20187;-78
2021/05/08 07:56:35;;;;;;;7.20;6.50;;;11.50;99.90;;;;;;5052376;28;20193;-78
2021/05/08 07:59:01;;;;;;;8.67;6.00;;;11.40;99.90;;;;;;5053319;28;20426;-78
2021/05/08 08:01:26;;;;;;;10.40;5.57;;;11.60;99.90;;;;;;5036462;28;20401;-78
2021/05/08 08:03:52;;;;;;;8.90;6.43;;;11.60;99.90;;;;;;5053673;28;20423;-78
2021/05/08 08:06:18;;;;;;;9.63;7.10;;;11.80;99.90;;;;;;5062194;28;20188;-78
2021/05/08 08:08:43;;;;;;;8.27;5.70;;;11.90;99.90;;;;;;5050389;28;20171;-78
2021/05/08 08:11:09;;;;;;;6.60;5.90;;;11.90;99.90;;;;;;5064590;28;20181;-78
2021/05/08 08:13:34;;;;;;;6.53;5.83;;;12.00;99.90;;;;;;5073598;28;20264;-78
2021/05/08 08:16:00;;;;;;;10.73;6.87;;;12.10;99.90;;;;;;5072702;28;20204;-78
2021/05/08 08:18:27;;;;;;;10.30;5.80;;;12.20;99.90;;;;;;5054742;28;20655;-78
2021/05/08 08:20:53;;;;;;;6.67;6.03;;;12.40;99.90;;;;;;5072407;28;20228;-78
2021/05/08 08:23:19;;;;;;;5.70;5.17;;;12.70;99.90;;;;;;5053907;28;20417;-78
2021/05/08 08:25:45;;;;;;;5.60;5.07;;;12.90;99.90;;;;;;5054786;28;20468;-78
2021/05/08 08:28:10;;;;;;;10.80;5.70;;;13.20;99.90;;;;;;5055872;28;20457;-78
2021/05/08 08:30:36;;;;;;;6.40;5.27;;;13.40;99.90;;;;;;5072033;28;20493;-79
2021/05/08 08:33:02;;;;;;;8.13;5.67;;;13.60;99.90;;;;;;5068310;28;20179;-78
2021/05/08 08:35:27;;;;;;;5.17;3.70;;;13.70;99.90;;;;;;5038451;28;20197;-78
2021/05/08 08:37:53;;;;;;;5.37;4.47;;;13.80;99.90;;;;;;5040919;28;20175;-78
2021/05/08 08:40:20;;;;;;;4.60;3.80;;;13.90;99.90;;;;;;5049629;28;20194;-78
2021/05/08 08:42:46;;;;;;;5.83;4.00;;;14.20;99.90;;;;;;5060596;28;20205;-78
2021/05/08 08:45:12;;;;;;;8.10;4.27;;;14.20;99.60;;;;;;5072969;28;20444;-79
2021/05/08 08:47:38;;;;;;;5.73;3.80;;;14.20;98.20;;;;;;5077155;28;20227;-79
2021/05/08 08:50:14;;;;;;;5.57;4.00;;;14.40;98.40;;;;;;5079370;28;20409;-79
2021/05/08 08:52:40;;;;;;;4.10;3.07;;;14.10;97.90;;;;;;5079383;28;20174;-77
2021/05/08 08:55:08;;;;;;;6.23;3.37;;;14.20;97.00;;;;;;5073353;28;20523;-78
2021/05/08 08:57:43;;;;;;;6.33;3.30;;;14.30;98.80;;;;;;5068057;28;20790;-78
2021/05/08 09:00:16;;;;;;;6.23;3.60;;;14.40;96.90;;;;;;5057995;28;20404;-78
2021/05/08 09:02:50;;;;;;;6.40;3.40;;;14.50;96.90;;;;;;5041055;28;20421;-78
2021/05/08 09:05:22;;;;;;;6.13;3.30;;;14.60;96.00;;;;;;5050658;28;20453;-78
2021/05/08 09:07:49;;;;;;;4.20;2.97;;;14.50;93.90;;;;;;5079869;28;20460;-77
2021/05/08 09:10:31;;;;;;;7.40;2.83;;;15.00;93.80;;;;;;5080475;28;20412;-78
2021/05/08 09:12:59;;;;;;;3.33;3.03;;;14.90;87.20;;;;;;5069229;28;20451;-78
2021/05/08 09:15:45;;;;;;;6.03;3.13;;;15.10;84.10;;;;;;5078393;28;20462;-79
2021/05/08 09:18:31;;;;;;;3.80;2.80;;;15.30;81.30;;;;;;5062849;28;20416;-79
2021/05/08 09:20:58;;;;;;;6.30;3.10;;;15.70;75.80;;;;;;5082735;28;20413;-79
2021/05/08 09:23:25;;;;;;;7.40;3.70;;;15.90;74.30;;;;;;5079842;28;20421;-80
2021/05/08 09:26:05;;;;;;;5.47;3.03;;;16.50;79.00;;;;;;5083088;28;20440;-80
2021/05/08 09:28:33;;;;;;;6.67;3.50;;;16.40;69.80;;;;;;5081767;28;20482;-79
2021/05/08 09:30:58;;;;;;;6.60;2.97;;;16.30;69.70;;;;;;5078926;28;21031;-79
2021/05/08 09:33:26;;;;;;;8.00;3.20;;;16.60;72.30;;;;;;5059915;28;20430;-80
2021/05/08 09:36:00;;;;;;;3.03;2.73;;;16.20;65.40;;;;;;5044071;28;20204;-79
2021/05/08 09:38:45;;;;;;;5.20;3.13;;;16.10;63.50;;;;;;5044148;28;20420;-80
2021/05/08 09:41:13;;;;;;;6.43;2.97;;;16.20;63.90;;;;;;5043420;28;20444;-78
2021/05/08 09:43:39;;;;;;;4.43;2.67;;;16.00;64.60;;;;;;5050914;28;20427;-80
2021/05/08 09:46:06;;;;;;;4.03;2.97;;;16.10;65.50;;;;;;5063838;28;20966;-80
2021/05/08 09:48:37;;;;;;;5.00;3.03;;;16.10;62.80;;;;;;5068365;28;20550;-80
2021/05/08 09:51:28;;;;;;;3.70;2.93;;;15.90;64.00;;;;;;5080659;28;20401;-79
2021/05/08 09:54:02;;;;;;;4.30;2.90;;;15.90;67.50;;;;;;5082844;28;20570;-80
2021/05/08 09:56:43;;;;;;;5.10;2.90;;;16.30;66.20;;;;;;5084853;28;20407;-80
2021/05/08 09:59:34;;;;;;;3.97;2.73;;;16.50;69.80;;;;;;5083846;28;20422;-80
2021/05/08 10:02:02;;;;;;;3.93;2.80;;;16.40;66.40;;;;;;5082242;28;20434;-79
2021/05/08 10:07:14;;;;;;;4.80;2.80;;;16.30;67.10;;;;;;5079431;28;20451;-79
2021/05/08 10:09:41;;;;;;;3.50;2.77;;;16.40;65.10;;;;;;5073036;28;20417;-80
2021/05/08 10:12:12;;;;;;;7.03;2.93;;;16.70;67.80;;;;;;5061434;28;20405;-80
2021/05/08 10:14:40;;;;;;;3.87;2.20;;;16.70;66.00;;;;;;5060637;28;20433;-79
2021/05/08 10:17:09;;;;;;;3.07;2.57;;;16.50;64.70;;;;;;5066159;28;20425;-79
2021/05/08 10:19:37;;;;;;;5.73;3.00;;;16.40;63.60;;;;;;5043899;28;20436;-80
2021/05/08 10:22:07;;;;;;;5.77;3.40;;;16.70;64.30;;;;;;5046190;28;20420;-80
2021/05/08 10:24:35;;;;;;;5.23;3.27;;;17.20;67.60;;;;;;5059073;28;20448;-79
2021/05/08 10:27:01;;;;;;;3.60;2.33;;;16.80;62.40;;;;;;5080195;28;20460;-79
2021/05/08 10:29:29;;;;;;;3.30;2.10;;;16.70;61.20;;;;;;5082376;28;20408;-79
2021/05/08 10:31:57;;;;;;;3.10;2.40;;;16.70;61.10;;;;;;5074713;28;20447;-79
2021/05/08 10:34:37;;;;;;;3.53;2.00;;;16.30;59.90;;;;;;5058994;28;20447;-79
2021/05/08 10:37:13;;;;;;;2.40;2.10;;;16.30;62.30;;;;;;5079059;28;20424;-79
2021/05/08 10:39:52;;;;;;;5.00;2.20;;;16.30;63.60;;;;;;5079969;28;20415;-79
2021/05/08 10:42:46;;;;;;;2.93;1.93;;;16.30;62.30;;;;;;5072682;28;20424;-79
2021/05/08 10:45:12;;;;;;;7.73;2.77;;;16.60;63.10;;;;;;5042036;28;20445;-79
2021/05/08 10:47:59;;;;;;;2.60;1.93;;;16.60;64.40;;;;;;5051980;28;20452;-79
2021/05/08 10:50:37;;;;;;;4.13;2.63;;;16.70;64.80;;;;;;5079957;28;20167;-79
2021/05/08 10:53:11;;;;;;;3.90;2.70;;;16.50;63.40;;;;;;5058730;28;20413;-80
2021/05/08 10:55:50;;;;;;;3.87;2.80;;;16.40;63.30;;;;;;5042073;28;20429;-79
2021/05/08 10:58:22;;;;;;;7.17;2.83;;;16.30;64.10;;;;;;5042734;28;20436;-79
2021/05/08 11:00:48;;;;;;;3.00;2.10;;;16.20;62.60;;;;;;5060088;28;20455;-79
2021/05/08 11:03:24;;;;;;;4.07;2.10;;;16.10;64.40;;;;;;5050745;28;20416;-79
2021/05/08 11:06:04;;;;;;;2.10;1.77;;;16.10;67.10;;;;;;5058753;28;20448;-79
2021/05/08 11:08:30;;;;;;;4.30;2.53;;;15.90;68.10;;;;;;5057083;28;20452;-78
2021/05/08 11:11:00;;;;;;;2.97;2.30;;;15.70;66.10;;;;;;5058670;28;20405;-79
2021/05/08 11:13:28;;;;;;;1.40;1.30;;;15.70;70.40;;;;;;5039986;28;20436;-79
2021/05/08 11:15:56;;;;;;;1.93;1.33;;;15.60;72.80;;;;;;5062968;28;20422;-78
2021/05/08 11:21:21;;;;;;;3.23;1.83;;;15.70;72.80;;;;;;5075585;28;20949;-78
2021/05/08 11:23:49;;;;;;;2.47;2.07;;;15.70;77.00;;;;;;5058083;28;20779;-78
2021/05/08 11:29:18;;;;;;;6.57;1.70;;;15.90;76.90;;;;;;5056636;28;20420;-79
2021/05/08 11:31:48;;;;;;;3.30;1.73;;;15.90;77.80;;;;;;5055611;28;20405;-78
2021/05/08 11:34:18;;;;;;;2.00;1.70;;;15.60;78.90;;;;;;5054717;28;20476;-78
2021/05/08 11:36:47;;;;;;;1.50;1.40;;;15.70;84.80;;;;;;5057369;28;20401;-78
2021/05/08 11:39:16;;;;;;;1.70;1.60;;;15.40;94.00;;;;;;5056280;28;20406;-78
2021/05/08 11:41:42;;;;;;;2.40;1.30;;;15.40;91.30;;;;;;5054398;28;20413;-78
2021/05/08 11:44:08;;;;;;;2.17;1.43;;;15.40;92.10;;;;;;5046603;28;20443;-78
2021/05/08 11:46:35;;;;;;;1.90;1.23;;;15.30;90.50;;;;;;5079137;28;20431;-78
2021/05/08 11:49:01;;;;;;;2.00;1.77;;;15.30;90.70;;;;;;5054946;28;20496;-78
2021/05/08 11:51:27;;;;;;;2.07;1.50;;;15.50;92.30;;;;;;5067243;28;20906;-79
2021/05/08 11:54:13;;;;;;;1.60;1.40;;;15.30;90.90;;;;;;5071532;28;20439;-79
2021/05/08 11:56:38;;;;;;;2.53;1.90;;;15.30;93.50;;;;;;5057159;28;20427;-79
2021/05/08 11:59:06;;;;;;;2.40;1.63;;;15.30;97.50;;;;;;5059837;28;20775;-79
2021/05/08 12:01:32;;;;;;;2.10;1.63;;;15.50;99.90;;;;;;5061446;28;20213;-79
2021/05/08 12:04:00;;;;;;;1.47;1.23;;;15.50;99.90;;;;;;5059401;28;20834;-79
2021/05/08 12:06:27;;;;;;;3.30;1.87;;;15.50;99.90;;;;;;5077088;28;20462;-79
2021/05/08 12:08:56;;;;;;;4.00;1.77;;;15.70;99.90;;;;;;5079670;28;20413;-79
2021/05/08 12:11:23;;;;;;;2.60;1.73;;;15.60;99.90;;;;;;5077232;28;20454;-79
2021/05/08 12:13:50;;;;;;;1.73;1.50;;;15.80;99.90;;;;;;5076990;28;20488;-79
2021/05/08 12:16:16;;;;;;;2.80;1.77;;;15.90;99.90;;;;;;5079641;28;20491;-79
2021/05/08 12:18:42;;;;;;;1.70;1.57;;;15.80;99.90;;;;;;5077872;28;20916;-79
2021/05/08 12:21:11;;;;;;;2.03;1.57;;;15.80;99.90;;;;;;5073423;28;20419;-79
2021/05/08 12:23:38;;;;;;;3.17;1.60;;;16.10;99.90;;;;;;5070093;28;20416;-78
2021/05/08 12:26:18;;;;;;;3.50;1.70;;;16.10;99.90;;;;;;5044542;28;20413;-80
2021/05/08 12:28:43;;;;;;;2.80;1.67;;;16.10;99.90;;;;;;5048692;28;20459;-79
2021/05/08 12:31:26;;;;;;;4.40;1.40;;;16.10;99.90;;;;;;5082355;28;20431;-79
2021/05/08 12:33:53;;;;;;;4.80;1.87;;;15.80;99.90;;;;;;5077979;28;20190;-79
2021/05/08 12:36:22;;;;;;;2.57;1.50;;;15.70;99.90;;;;;;5075965;28;20906;-78
2021/05/08 12:38:48;;;;;;;4.30;2.13;;;15.50;99.90;;;;;;5050790;28;20431;-78
2021/05/08 12:41:35;;;;;;;2.13;1.80;;;15.40;99.90;;;;;;5057614;28;20409;-78
2021/05/08 12:44:04;;;;;;;1.90;1.70;;;15.40;99.90;;;;;;5074009;28;20853;-78
2021/05/08 12:47:04;;;;;;;3.10;1.63;;;15.20;99.90;;;;;;5073267;28;20456;-79
2021/05/08 12:49:32;;;;;;;5.33;1.60;;;15.30;99.90;;;;;;5055322;28;20439;-79
2021/05/08 12:52:21;;;;;;;7.50;1.73;;;15.10;99.90;;;;;;5075736;28;20427;-78
2021/05/08 12:54:50;;;;;;;4.63;2.60;;;15.20;99.90;;;;;;5057954;28;20440;-78
2021/05/08 12:57:17;;;;;;;2.03;1.83;;;15.10;99.90;;;;;;5073316;28;20423;-78
2021/05/08 12:59:54;;;;;;;3.87;2.07;;;15.00;99.90;;;;;;5059195;28;20439;-78